Wednesday, November 22, 2017, 11:28 AM EST
Back to Local

KDSV, Dansville Municipal Airport

Location: Dansville, NY, United States Lat: 42.567
Local Time: 11:28 AM EST (16:28 GMT) Lon: -77.717
Time Zone: US/Eastern Elev: 662 ft

Show me the last for .
Show Decoded

2017-11-22 10:54 METAR KDSV 221554Z AUTO 31008KT 10SM BKN038 OVC047 02/M03 A3010 RMK AO2 SLP207
                 T00171028 =
2017-11-22 09:54 METAR KDSV 221454Z AUTO 30007KT 270V330 10SM FEW020 OVC031 02/M01 A3010 RMK AO2
                 SNB29E38 SLP208 P0000 60001 T00171011 51013 =
2017-11-22 09:51 METAR KDSV 221451Z AUTO 31006KT 10SM SCT021 OVC031 02/M01 A3010 RMK AO2 SNB29E38
                 P0000 =
2017-11-22 09:24 METAR KDSV 221424Z AUTO 33008KT 10SM SCT021 BKN027 OVC034 02/M01 A3010 RMK AO2
                 T00171011 =
2017-11-22 08:54 METAR KDSV 221354Z AUTO 31005KT 10SM FEW030 FEW046 OVC070 01/M01 A3009 RMK AO2
                 SLP203 T00111011 =
2017-11-22 07:54 METAR KDSV 221254Z AUTO 00000KT 10SM FEW022 FEW028 OVC038 01/M01 A3006 RMK AO2
                 SNE09 SLP195 P0001 T00061011 =
2017-11-22 07:17 METAR KDSV 221217Z AUTO 35005KT 10SM FEW005 SCT024 OVC036 01/M01 A3005 RMK AO2
                 SNE09 P0000 T00061006 =
2017-11-22 07:06 METAR KDSV 221206Z AUTO 33007KT 6SM -SN BR SCT003 BKN024 OVC040 01/M01 A3004 RMK
                 AO2 P0000 T00061006 =
2017-11-22 06:58 METAR KDSV 221158Z AUTO 32005KT 2 1/2SM -SN BR SCT003 BKN008 OVC020 00/M01 A3004
                 RMK AO2 P0000 T00001006 =
2017-11-22 06:54 METAR KDSV 221154Z AUTO 32008KT 1 1/2SM -SN BR BKN003 BKN010 OVC018 00/M01 A3004
                 RMK AO2 SLP186 P0002 60015 70015 T00001006 10078 20000 51028 =
2017-11-22 06:40 METAR KDSV 221140Z AUTO 34007KT 1 1/2SM -SN BR BKN007 OVC010 01/M01 A3003 RMK
                 AO2 P0001 T00061006 =
2017-11-22 06:26 METAR KDSV 221126Z AUTO 33005KT 2SM -SN BR OVC007 01/M01 A3002 RMK AO2 P0001
                 T00061006 =
2017-11-22 06:13 METAR KDSV 221113Z AUTO 34006KT 3SM -SN BR OVC005 01/M01 A3001 RMK AO2 P0001
                 T00061006 =
2017-11-22 06:02 METAR KDSV 221102Z AUTO 32006KT 3SM -SN BR OVC003 01/M01 A3001 RMK AO2 P0000
                 T00061006 =
2017-11-22 05:54 METAR KDSV 221054Z AUTO 32005KT 2 1/2SM -SN BR OVC003 01/M01 A3001 RMK AO2
                 RAE06SNB06 SLP175 P0004 T00061006 =
2017-11-22 05:07 METAR KDSV 221007Z AUTO 33010KT 7SM -SN OVC007 01/00 A2999 RMK AO2 RAE06SNB06
                 P0002 T00110000 =
2017-11-22 04:54 METAR KDSV 220954Z AUTO 34009KT 8SM -RA BKN009 BKN014 OVC019 02/01 A2999 RMK AO2
                 SLP166 P0006 T00220006 =
2017-11-22 03:54 METAR KDSV 220854Z AUTO 34010KT 7SM -RA OVC012 03/01 A2995 RMK AO2 SLP154 P0003
                 60003 T00330011 53027 =
2017-11-22 03:34 METAR KDSV 220834Z AUTO 33009KT 8SM -RA OVC014 04/02 A2994 RMK AO2 P0002
                 T00390017 =
2017-11-22 02:54 METAR KDSV 220754Z AUTO 33012KT 10SM -RA BKN017 OVC024 05/03 A2991 RMK AO2 RAB42
                 SLP140 P0000 T00500028 =
2017-11-22 02:18 METAR KDSV 220718Z AUTO 33003KT 10SM BKN026 OVC055 07/02 A2989 RMK AO2 T00670022
                 =
2017-11-22 01:54 METAR KDSV 220654Z AUTO 36009KT 10SM FEW028 BKN060 07/03 A2988 RMK AO2 SLP130
                 T00720028 =
2017-11-22 00:54 METAR KDSV 220554Z AUTO 34010KT 10SM BKN065 07/02 A2987 RMK AO2 SLP125 T00720017
                 10089 20039 50001 =
2017-11-21 23:54 METAR KDSV 220454Z AUTO 17003KT 10SM OVC065 08/M02 A2988 RMK AO2 SLP128
                 T00781017 401440033 =
2017-11-21 22:54 METAR KDSV 220354Z AUTO 15003KT 10SM BKN060 07/M02 A2987 RMK AO2 SLP124
                 T00671017 =
2017-11-21 21:54 METAR KDSV 220254Z AUTO 15004KT 10SM BKN060 06/M02 A2987 RMK AO2 SLP125
                 T00611017 50005 =
2017-11-21 20:54 METAR KDSV 220154Z AUTO 16004KT 10SM FEW065 06/M03 A2988 RMK AO2 SLP130
                 T00561028 =
2017-11-21 19:54 METAR KDSV 220054Z AUTO 16004KT 10SM CLR 06/M03 A2986 RMK AO2 SLP125 T00561033 =
2017-11-21 18:54 METAR KDSV 212354Z AUTO 17004KT 10SM CLR 09/M04 A2985 RMK AO2 SLP122 T00891044
                 10144 20078 51014 =
2017-11-21 17:54 METAR KDSV 212254Z AUTO 16006KT 10SM CLR 11/M04 A2984 RMK AO2 SLP118 T01061044 =
2017-11-21 16:54 METAR KDSV 212154Z AUTO 19004KT 10SM CLR 12/M04 A2982 RMK AO2 SLP111 T01221044 =
2017-11-21 15:54 METAR KDSV 212054Z AUTO 20009G14KT 160V220 10SM CLR 13/M05 A2981 RMK AO2 SLP105
                 T01331050 53017 =
2017-11-21 14:54 METAR KDSV 211954Z AUTO 19009G16KT 10SM CLR 14/M06 A2978 RMK AO2 SLP096
                 T01441061 =
2017-11-21 13:54 METAR KDSV 211854Z AUTO 20011G22KT 180V240 10SM CLR 14/M07 A2978 RMK AO2 PK WND
                 20027/1758 SLP094 T01391067 =
2017-11-21 12:54 METAR KDSV 211754Z AUTO 19013G21KT 10SM CLR 14/M08 A2976 RMK AO2 PK WND
                 19028/1724 SLP088 T01391078 10139 20044 56020 =
2017-11-21 11:54 METAR KDSV 211654Z AUTO 21011G21KT 180V240 10SM CLR 13/M08 A2977 RMK AO2 PK WND
                 17026/1630 SLP093 T01331083 =

Support USWX by starting your Amazon purchase here.